createdAt,value
2019-02-28T00:01:54.659Z,14.43
2019-02-28T00:04:24.228Z,11.07
2019-02-28T00:06:53.818Z,9.87
2019-02-28T00:09:25.711Z,11.30
2019-02-28T00:11:54.707Z,9.87
2019-02-28T00:14:27.623Z,11.00
2019-02-28T00:16:55.691Z,11.33
2019-02-28T00:19:25.401Z,12.93
2019-02-28T00:21:55.008Z,11.30
2019-02-28T00:24:27.142Z,12.13
2019-02-28T00:26:56.099Z,10.10
2019-02-28T00:29:25.734Z,9.83
2019-02-28T00:31:55.439Z,8.87
2019-02-28T00:34:25.175Z,10.43
2019-02-28T00:36:54.824Z,11.20
2019-02-28T00:39:24.466Z,14.43
2019-02-28T00:41:54.238Z,11.90
2019-02-28T00:44:23.804Z,14.27
2019-02-28T00:46:53.471Z,11.10
2019-02-28T00:49:24.490Z,12.60
2019-02-28T00:51:54.475Z,10.67
2019-02-28T00:54:24.100Z,13.43
2019-02-28T00:56:53.787Z,11.40
2019-02-28T00:59:23.478Z,10.80
2019-02-28T01:01:53.131Z,11.73
2019-02-28T01:04:22.756Z,13.03
2019-02-28T01:06:52.370Z,12.87
2019-02-28T01:09:21.930Z,13.03
2019-02-28T01:11:51.563Z,12.43
2019-02-28T01:14:21.158Z,14.43
2019-02-28T01:16:53.034Z,15.10
2019-02-28T01:19:22.224Z,13.73
2019-02-28T01:21:51.855Z,11.17
2019-02-28T01:24:21.431Z,13.03
2019-02-28T01:26:51.159Z,14.60
2019-02-28T01:29:20.775Z,14.00
2019-02-28T01:31:50.377Z,12.63
2019-02-28T01:34:19.946Z,12.40
2019-02-28T01:36:49.658Z,12.07
2019-02-28T01:39:19.271Z,11.70
2019-02-28T01:41:48.983Z,13.37
2019-02-28T01:44:18.598Z,13.87
2019-02-28T01:46:48.630Z,12.87
2019-02-28T01:49:18.976Z,12.97
2019-02-28T01:51:48.566Z,12.40
2019-02-28T01:54:18.219Z,13.57
2019-02-28T01:56:47.887Z,14.53
2019-02-28T01:59:17.502Z,13.70
2019-02-28T02:01:47.083Z,13.87
2019-02-28T02:04:16.812Z,13.00
2019-02-28T02:06:46.467Z,15.70
2019-02-28T02:09:16.271Z,12.13
2019-02-28T02:11:46.051Z,13.83
2019-02-28T02:14:15.670Z,13.97
2019-02-28T02:16:45.260Z,13.43
2019-02-28T02:19:18.503Z,11.93
2019-02-28T02:21:46.220Z,13.57
2019-02-28T02:24:15.861Z,13.43
2019-02-28T02:26:45.959Z,13.37
2019-02-28T02:29:15.643Z,12.93
2019-02-28T02:31:45.297Z,13.63
2019-02-28T02:34:14.956Z,12.53
2019-02-28T02:36:44.643Z,11.80
2019-02-28T02:39:17.562Z,12.13
2019-02-28T02:41:45.707Z,14.13
2019-02-28T02:44:15.339Z,13.03
2019-02-28T02:46:45.018Z,13.03
2019-02-28T02:49:19.895Z,13.50
2019-02-28T02:51:50.274Z,12.53
2019-02-28T02:54:20.538Z,11.90
2019-02-28T02:56:50.461Z,11.40
2019-02-28T02:59:20.467Z,12.97
2019-02-28T03:01:50.715Z,11.97
2019-02-28T03:04:22.886Z,11.57
2019-02-28T03:06:52.504Z,11.17
2019-02-28T03:09:22.753Z,13.00
2019-02-28T03:11:52.791Z,12.67
2019-02-28T03:14:24.375Z,11.83
2019-02-28T03:16:54.919Z,13.87
2019-02-28T03:19:25.445Z,12.57
2019-02-28T03:21:58.378Z,11.83
2019-02-28T03:24:28.210Z,11.97
2019-02-28T03:26:58.622Z,11.87
2019-02-28T03:29:28.989Z,12.17
2019-02-28T03:31:59.882Z,11.83
2019-02-28T03:34:30.164Z,12.83
2019-02-28T03:37:00.544Z,11.67
2019-02-28T03:39:30.831Z,12.40
2019-02-28T03:42:01.050Z,11.47
2019-02-28T03:44:30.819Z,11.57
2019-02-28T03:47:00.384Z,11.47
2019-02-28T03:49:30.038Z,12.00
2019-02-28T03:52:05.364Z,11.27
2019-02-28T03:54:30.988Z,11.27
2019-02-28T03:57:00.735Z,11.20
2019-02-28T03:59:30.403Z,10.67
2019-02-28T04:02:00.129Z,11.60
2019-02-28T04:04:29.759Z,11.83
2019-02-28T04:06:59.402Z,12.30
2019-02-28T04:09:29.041Z,11.67
2019-02-28T04:11:58.700Z,12.67
2019-02-28T04:14:32.779Z,11.27
2019-02-28T04:16:59.704Z,10.50
2019-02-28T04:19:29.347Z,11.37
2019-02-28T04:21:58.992Z,12.27
2019-02-28T04:24:28.672Z,11.23
2019-02-28T04:26:58.339Z,11.50
2019-02-28T04:29:31.180Z,10.97
2019-02-28T04:31:59.400Z,12.30
2019-02-28T04:34:28.995Z,11.87
2019-02-28T04:36:58.661Z,11.67
2019-02-28T04:39:28.380Z,10.97
2019-02-28T04:41:58.050Z,11.30
2019-02-28T04:44:27.608Z,11.40
2019-02-28T04:46:57.264Z,12.20
2019-02-28T04:49:26.813Z,11.90
2019-02-28T04:51:56.452Z,12.00
2019-02-28T04:54:27.807Z,12.23
2019-02-28T04:56:57.311Z,12.50
2019-02-28T04:59:26.891Z,12.93
2019-02-28T05:01:56.590Z,12.83
2019-02-28T05:04:26.204Z,12.43
2019-02-28T05:06:55.930Z,12.67
2019-02-28T05:09:25.627Z,12.70
2019-02-28T05:11:55.185Z,14.23
2019-02-28T05:14:24.831Z,13.23
2019-02-28T05:16:54.463Z,13.43
2019-02-28T05:19:24.100Z,13.07
2019-02-28T05:21:54.364Z,12.30
2019-02-28T05:24:24.128Z,13.33
2019-02-28T05:26:53.780Z,12.87
2019-02-28T05:29:23.428Z,12.80
2019-02-28T05:31:53.047Z,12.97
2019-02-28T05:34:22.629Z,12.93
2019-02-28T05:36:55.177Z,12.93
2019-02-28T05:39:24.839Z,13.70
2019-02-28T05:41:54.615Z,12.60
2019-02-28T05:44:24.307Z,13.37
2019-02-28T05:46:57.513Z,12.97
2019-02-28T05:49:25.316Z,12.93
2019-02-28T05:51:58.580Z,13.70
2019-02-28T05:54:26.366Z,13.20
2019-02-28T05:56:55.972Z,13.80
2019-02-28T05:59:27.408Z,14.10
2019-02-28T06:01:57.923Z,12.00
2019-02-28T06:04:27.536Z,12.67
2019-02-28T06:06:57.316Z,13.30
2019-02-28T06:09:26.965Z,14.37
2019-02-28T06:11:56.653Z,13.40
2019-02-28T06:14:27.647Z,13.50
2019-02-28T06:16:57.433Z,14.17
2019-02-28T06:19:27.029Z,14.00
2019-02-28T06:21:59.428Z,14.57
2019-02-28T06:24:27.987Z,13.87
2019-02-28T06:26:57.673Z,13.13
2019-02-28T06:29:27.308Z,12.13
2019-02-28T06:31:56.916Z,13.17
2019-02-28T06:34:26.511Z,14.33
2019-02-28T06:36:56.243Z,13.73
2019-02-28T06:39:26.866Z,13.37
2019-02-28T06:41:58.338Z,12.70
2019-02-28T06:44:28.083Z,13.70
2019-02-28T06:46:57.776Z,13.63
2019-02-28T06:49:27.502Z,13.13
2019-02-28T06:51:57.156Z,12.87
2019-02-28T06:54:26.825Z,13.70
2019-02-28T06:56:56.514Z,15.97
2019-02-28T06:59:26.078Z,16.17
2019-02-28T07:01:57.580Z,15.07
2019-02-28T07:04:27.058Z,15.40
2019-02-28T07:06:56.766Z,14.00
2019-02-28T07:09:26.305Z,14.00
2019-02-28T07:11:56.011Z,13.77
2019-02-28T07:14:26.603Z,15.90
2019-02-28T07:16:56.267Z,15.57
2019-02-28T07:19:26.412Z,14.90
2019-02-28T07:21:56.760Z,15.23
2019-02-28T07:24:26.420Z,13.80
2019-02-28T07:26:57.171Z,13.50
2019-02-28T07:29:26.779Z,12.57
2019-02-28T07:31:59.980Z,12.47
2019-02-28T07:34:28.048Z,12.83
2019-02-28T07:36:57.671Z,12.57
2019-02-28T07:39:27.279Z,12.77
2019-02-28T07:41:58.870Z,11.97
2019-02-28T07:44:28.236Z,12.60
2019-02-28T07:46:57.840Z,12.33
2019-02-28T07:49:27.433Z,11.37
2019-02-28T07:51:57.885Z,11.63
2019-02-28T07:54:27.737Z,12.10
2019-02-28T07:56:57.361Z,12.43
2019-02-28T07:59:27.071Z,12.13
2019-02-28T08:01:56.721Z,12.27
2019-02-28T08:04:26.331Z,11.77
2019-02-28T08:06:56.036Z,12.27
2019-02-28T08:09:27.034Z,12.77
2019-02-28T08:11:56.832Z,11.90
2019-02-28T08:14:26.515Z,12.20
2019-02-28T08:16:56.107Z,12.90
2019-02-28T08:19:27.137Z,13.00
2019-02-28T08:21:57.176Z,12.47
2019-02-28T08:24:26.758Z,11.80
2019-02-28T08:26:56.366Z,14.40
2019-02-28T08:29:25.966Z,13.77
2019-02-28T08:31:57.436Z,13.60
2019-02-28T08:34:27.040Z,13.17
2019-02-28T08:36:56.677Z,12.37
2019-02-28T08:39:26.228Z,11.63
2019-02-28T08:42:02.993Z,12.67
2019-02-28T08:44:27.195Z,12.43
2019-02-28T08:46:56.876Z,11.83
2019-02-28T08:49:26.520Z,12.93
2019-02-28T08:51:56.134Z,12.70
2019-02-28T08:54:27.266Z,11.97
2019-02-28T08:56:57.279Z,13.53
2019-02-28T08:59:26.988Z,14.83
2019-02-28T09:01:56.620Z,23.40
2019-02-28T09:04:26.202Z,22.07
2019-02-28T09:06:55.844Z,29.70
2019-02-28T09:09:25.421Z,33.87
2019-02-28T09:11:58.140Z,26.97
2019-02-28T09:14:27.507Z,20.87
2019-02-28T09:16:57.079Z,13.90
2019-02-28T09:19:26.708Z,14.83
2019-02-28T09:21:56.679Z,14.13
2019-02-28T09:24:26.404Z,14.80
2019-02-28T09:26:56.032Z,13.80
2019-02-28T09:29:25.663Z,14.70
2019-02-28T09:31:56.217Z,14.20
2019-02-28T09:34:25.935Z,14.40
2019-02-28T09:36:56.635Z,13.77
2019-02-28T09:39:26.484Z,14.97
2019-02-28T09:41:56.062Z,15.10
2019-02-28T09:44:25.620Z,15.57
2019-02-28T09:46:55.182Z,15.13
2019-02-28T09:49:24.742Z,15.13
2019-02-28T09:51:54.382Z,15.13
2019-02-28T09:54:24.370Z,15.77
2019-02-28T09:56:54.885Z,14.63
2019-02-28T09:59:24.455Z,15.27
2019-02-28T10:02:01.152Z,14.93
2019-02-28T10:04:27.394Z,15.97
2019-02-28T10:06:56.961Z,15.67
2019-02-28T10:09:26.628Z,15.80
2019-02-28T10:11:56.246Z,16.07
2019-02-28T10:14:28.888Z,15.10
2019-02-28T10:16:57.084Z,16.57
2019-02-28T10:19:26.649Z,15.47
2019-02-28T10:21:56.203Z,16.33
2019-02-28T10:24:28.385Z,16.07
2019-02-28T10:26:57.060Z,17.17
2019-02-28T10:29:26.635Z,15.13
2019-02-28T10:31:56.191Z,16.20
2019-02-28T10:34:26.405Z,16.03
2019-02-28T10:36:57.011Z,15.50
2019-02-28T10:39:26.560Z,16.70
2019-02-28T10:41:56.108Z,15.23
2019-02-28T10:44:30.306Z,14.70
2019-02-28T10:46:57.077Z,15.70
2019-02-28T10:49:26.626Z,17.57
2019-02-28T10:51:56.252Z,16.20
2019-02-28T10:54:25.815Z,17.10
2019-02-28T10:56:55.387Z,16.23
2019-02-28T10:59:25.182Z,16.47
2019-02-28T11:01:54.935Z,16.03
2019-02-28T11:04:24.647Z,16.33
2019-02-28T11:06:54.269Z,16.00
2019-02-28T11:09:25.476Z,16.63
2019-02-28T11:11:55.306Z,15.53
2019-02-28T11:14:24.883Z,17.10
2019-02-28T11:16:58.883Z,16.97
2019-02-28T11:19:25.754Z,17.20
2019-02-28T11:21:55.395Z,16.67
2019-02-28T11:24:27.092Z,17.10
2019-02-28T11:26:56.366Z,17.23
2019-02-28T11:29:25.947Z,17.23
2019-02-28T11:31:55.511Z,17.27
2019-02-28T11:34:25.101Z,16.67
2019-02-28T11:36:54.638Z,16.70
2019-02-28T11:39:24.212Z,15.47
2019-02-28T11:41:53.848Z,16.00
2019-02-28T11:44:23.520Z,16.30
2019-02-28T11:46:53.104Z,16.33
2019-02-28T11:49:25.693Z,14.70
2019-02-28T11:51:53.936Z,15.70
2019-02-28T11:54:23.558Z,15.30
2019-02-28T11:56:53.202Z,15.17
2019-02-28T11:59:24.222Z,13.60
2019-02-28T12:01:54.039Z,13.97
2019-02-28T12:04:23.597Z,14.83
2019-02-28T12:06:53.767Z,12.53
2019-02-28T12:09:23.432Z,12.87
2019-02-28T12:11:53.062Z,13.73
2019-02-28T12:14:22.653Z,12.97
2019-02-28T12:16:53.662Z,13.37
2019-02-28T12:19:23.419Z,12.67
2019-02-28T12:21:52.987Z,19.60
2019-02-28T12:24:22.577Z,20.57
2019-02-28T12:26:52.590Z,17.73
2019-02-28T12:29:23.258Z,22.60
2019-02-28T12:31:52.892Z,16.97
2019-02-28T12:34:22.533Z,28.17
2019-02-28T12:36:52.116Z,18.67
2019-02-28T12:39:23.578Z,14.60
2019-02-28T12:41:53.019Z,15.43
2019-02-28T12:44:22.579Z,14.03
2019-02-28T12:46:52.211Z,14.17
2019-02-28T12:49:22.274Z,14.43
2019-02-28T12:51:52.720Z,12.20
2019-02-28T12:54:25.947Z,13.50
2019-02-28T12:56:55.459Z,11.67
2019-02-28T12:59:25.038Z,12.37
2019-02-28T13:01:54.675Z,12.33
2019-02-28T13:04:24.333Z,14.37
2019-02-28T13:06:55.548Z,12.50
2019-02-28T13:09:25.126Z,11.30
2019-02-28T13:11:54.688Z,19.87
2019-02-28T13:14:24.300Z,21.40
2019-02-28T13:16:54.594Z,15.90
2019-02-28T13:19:25.264Z,19.93
2019-02-28T13:21:54.832Z,25.37
2019-02-28T13:24:24.412Z,14.97
2019-02-28T13:26:54.029Z,15.60
2019-02-28T13:29:23.620Z,19.37
2019-02-28T13:31:53.241Z,33.20
2019-02-28T13:34:25.173Z,18.73
2019-02-28T13:37:02.013Z,21.90
2019-02-28T13:39:27.516Z,21.13
2019-02-28T13:41:58.672Z,23.33
2019-02-28T13:44:31.501Z,18.63
2019-02-28T13:46:59.204Z,17.30
2019-02-28T13:49:28.839Z,17.20
2019-02-28T13:51:58.488Z,18.97
2019-02-28T13:54:28.064Z,15.30
2019-02-28T13:56:57.655Z,16.27
2019-02-28T13:59:28.513Z,19.17
2019-02-28T14:01:58.492Z,17.23
2019-02-28T14:04:28.071Z,18.37
2019-02-28T14:06:57.651Z,17.90
2019-02-28T14:09:27.229Z,17.43
2019-02-28T14:11:56.792Z,17.60
2019-02-28T14:14:26.479Z,15.23
2019-02-28T14:16:58.290Z,18.47
2019-02-28T14:19:27.286Z,17.07
2019-02-28T14:21:56.879Z,17.20
2019-02-28T14:24:27.500Z,16.27
2019-02-28T14:26:57.771Z,14.97
2019-02-28T14:29:27.333Z,15.83
2019-02-28T14:31:56.906Z,16.75
2019-02-28T14:34:27.217Z,14.23
2019-02-28T14:36:56.899Z,15.60
2019-02-28T14:39:26.518Z,14.03
2019-02-28T14:41:56.185Z,14.53
2019-02-28T14:44:28.019Z,16.90
2019-02-28T14:46:57.079Z,23.27
2019-02-28T14:49:26.732Z,41.60
2019-02-28T14:51:56.393Z,24.20
2019-02-28T14:54:25.944Z,27.20
2019-02-28T14:56:55.674Z,35.00
2019-02-28T14:59:25.382Z,23.77
2019-02-28T15:01:55.026Z,24.00
2019-02-28T15:04:24.586Z,22.40
2019-02-28T15:06:54.168Z,24.43
2019-02-28T15:09:24.153Z,21.73
2019-02-28T15:11:55.031Z,19.47
2019-02-28T15:14:24.654Z,18.43
2019-02-28T15:16:54.306Z,20.27
2019-02-28T15:19:24.466Z,21.57
2019-02-28T15:21:55.032Z,18.63
2019-02-28T15:24:24.663Z,14.87
2019-02-28T15:26:54.304Z,16.27
2019-02-28T15:29:24.597Z,15.13
2019-02-28T15:31:55.186Z,15.07
2019-02-28T15:34:24.821Z,16.97
2019-02-28T15:36:55.555Z,16.27
2019-02-28T15:39:25.875Z,26.03
2019-02-28T15:41:55.529Z,20.17
2019-02-28T15:44:25.607Z,41.83
2019-02-28T15:46:56.478Z,54.70
2019-02-28T15:49:26.053Z,16.43
2019-02-28T15:51:55.644Z,16.42
2019-02-28T15:54:26.241Z,15.90
2019-02-28T15:56:56.426Z,13.33
2019-02-28T15:59:26.148Z,15.23
2019-02-28T16:01:55.792Z,14.77
2019-02-28T16:04:26.251Z,11.83
2019-02-28T16:06:57.924Z,13.47
2019-02-28T16:09:27.848Z,12.53
2019-02-28T16:11:57.407Z,13.27
2019-02-28T16:14:26.956Z,12.80
2019-02-28T16:16:56.759Z,12.77
2019-02-28T16:19:27.830Z,13.30
2019-02-28T16:21:57.406Z,14.47
2019-02-28T16:24:26.945Z,16.30
2019-02-28T16:26:57.774Z,16.67
2019-02-28T16:29:27.519Z,16.90
2019-02-28T16:31:57.167Z,16.47
2019-02-28T16:34:26.813Z,17.30
2019-02-28T16:36:57.427Z,17.30
2019-02-28T16:39:27.759Z,17.97
2019-02-28T16:41:57.395Z,16.37
2019-02-28T16:44:27.588Z,18.87
2019-02-28T16:46:58.394Z,16.90
2019-02-28T16:49:27.998Z,14.00
2019-02-28T16:51:57.577Z,14.90
2019-02-28T16:54:27.889Z,15.53
2019-02-28T16:56:57.568Z,24.43
2019-02-28T16:59:28.406Z,18.90
2019-02-28T17:01:59.559Z,12.33
2019-02-28T17:04:29.193Z,12.50
2019-02-28T17:06:58.804Z,11.27
2019-02-28T17:09:53.573Z,10.17
2019-02-28T17:12:34.484Z,11.07
2019-02-28T17:15:08.328Z,13.53
2019-02-28T17:17:55.039Z,24.50
2019-02-28T17:20:24.595Z,18.90
2019-02-28T17:22:54.220Z,9.20
2019-02-28T17:25:23.853Z,11.10
2019-02-28T17:27:58.402Z,12.00
2019-02-28T17:30:42.134Z,9.03
2019-02-28T17:33:11.698Z,8.40
2019-02-28T17:35:41.315Z,8.77
2019-02-28T17:38:10.891Z,7.13
2019-02-28T17:40:40.529Z,11.80
2019-02-28T17:43:10.168Z,9.67
2019-02-28T17:45:40.099Z,6.77
2019-02-28T17:48:23.840Z,8.43
2019-02-28T17:50:58.369Z,9.00
2019-02-28T17:53:45.850Z,9.20
2019-02-28T17:56:49.844Z,8.57
2019-02-28T17:59:42.046Z,8.43
2019-02-28T18:02:29.554Z,6.70
2019-02-28T18:05:03.901Z,5.80
2019-02-28T18:08:00.551Z,5.23
2019-02-28T18:10:52.026Z,6.23
2019-02-28T18:13:27.536Z,5.90
2019-02-28T18:16:22.720Z,6.13
2019-02-28T18:19:14.917Z,5.73
2019-02-28T18:21:49.467Z,6.17
2019-02-28T18:24:30.035Z,6.10
2019-02-28T18:27:17.192Z,7.37
2019-02-28T18:30:12.019Z,10.10
2019-02-28T18:32:41.605Z,8.73
2019-02-28T18:35:11.226Z,7.23
2019-02-28T18:37:40.792Z,8.63
2019-02-28T18:40:10.602Z,10.77
2019-02-28T18:42:40.256Z,10.27
2019-02-28T18:45:09.899Z,8.60
2019-02-28T18:47:40.684Z,8.50
2019-02-28T18:50:10.376Z,9.00
2019-02-28T18:52:40.036Z,11.03
2019-02-28T18:55:09.667Z,11.03
2019-02-28T18:57:39.220Z,8.00
2019-02-28T19:00:10.536Z,7.03
2019-02-28T19:02:40.098Z,7.90
2019-02-28T19:05:09.675Z,11.63
2019-02-28T19:07:39.336Z,13.60
2019-02-28T19:10:09.031Z,12.40
2019-02-28T19:12:38.603Z,10.63
2019-02-28T19:15:08.202Z,9.73
2019-02-28T19:17:37.789Z,8.80
2019-02-28T19:20:07.569Z,8.23
2019-02-28T19:22:37.181Z,8.33
2019-02-28T19:25:07.054Z,7.60
2019-02-28T19:27:36.624Z,9.47
2019-02-28T19:30:07.191Z,10.37
2019-02-28T19:32:36.814Z,10.17
2019-02-28T19:35:06.429Z,9.63
2019-02-28T19:37:36.090Z,10.00
2019-02-28T19:40:06.160Z,10.57
2019-02-28T19:42:35.799Z,9.70
2019-02-28T19:45:06.745Z,10.40
2019-02-28T19:47:36.369Z,14.53
2019-02-28T19:50:06.492Z,10.53
2019-02-28T19:52:36.318Z,9.80
2019-02-28T19:55:06.653Z,10.40
2019-02-28T19:57:36.217Z,10.27
2019-02-28T20:00:06.126Z,9.93
2019-02-28T20:02:35.707Z,10.60
2019-02-28T20:05:05.503Z,8.97
2019-02-28T20:07:35.076Z,9.10
2019-02-28T20:10:05.177Z,7.97
2019-02-28T20:12:34.931Z,7.47
2019-02-28T20:15:04.898Z,7.97
2019-02-28T20:17:34.494Z,7.63
2019-02-28T20:20:04.393Z,7.57
2019-02-28T20:22:34.150Z,8.70
2019-02-28T20:25:04.023Z,7.30
2019-02-28T20:27:33.591Z,8.90
2019-02-28T20:30:03.440Z,7.37
2019-02-28T20:32:33.036Z,7.87
2019-02-28T20:35:02.680Z,7.30
2019-02-28T20:37:32.266Z,6.47
2019-02-28T20:40:01.824Z,6.40
2019-02-28T20:42:34.515Z,6.77
2019-02-28T20:45:04.497Z,6.40
2019-02-28T20:47:34.076Z,6.53
2019-02-28T20:50:04.783Z,5.20
2019-02-28T20:52:34.382Z,7.70
2019-02-28T20:55:04.193Z,5.77
2019-02-28T20:57:33.841Z,5.47
2019-02-28T21:00:03.613Z,5.97
2019-02-28T21:02:33.259Z,7.03
2019-02-28T21:05:02.972Z,6.73
2019-02-28T21:07:32.544Z,7.13
2019-02-28T21:10:05.164Z,6.63
2019-02-28T21:12:35.993Z,5.77
2019-02-28T21:15:05.665Z,5.43
2019-02-28T21:17:35.224Z,5.80
2019-02-28T21:20:05.327Z,6.60
2019-02-28T21:22:34.936Z,4.83
2019-02-28T21:25:05.379Z,5.50
2019-02-28T21:27:34.953Z,5.70
2019-02-28T21:30:05.267Z,5.43
2019-02-28T21:32:34.903Z,5.30
2019-02-28T21:35:04.535Z,4.93
2019-02-28T21:37:36.511Z,5.27
2019-02-28T21:40:06.610Z,5.40
2019-02-28T21:42:38.768Z,5.23
2019-02-28T21:45:08.782Z,5.50
2019-02-28T21:47:38.410Z,5.07
2019-02-28T21:50:12.134Z,5.60
2019-02-28T21:52:41.768Z,4.87
2019-02-28T21:55:14.750Z,5.03
2019-02-28T21:57:44.369Z,5.50
2019-02-28T22:00:15.264Z,4.37
2019-02-28T22:02:44.815Z,5.50
2019-02-28T22:05:14.442Z,7.37
2019-02-28T22:07:44.610Z,6.47
2019-02-28T22:10:16.798Z,5.67
2019-02-28T22:12:46.449Z,5.73
2019-02-28T22:15:16.480Z,5.40
2019-02-28T22:17:46.011Z,5.10
2019-02-28T22:20:15.579Z,5.90
2019-02-28T22:22:45.153Z,6.23
2019-02-28T22:25:14.926Z,4.77
2019-02-28T22:27:44.589Z,5.37
2019-02-28T22:30:34.493Z,5.23
2019-02-28T22:33:06.337Z,5.83
2019-02-28T22:35:39.862Z,5.87
2019-02-28T22:38:09.518Z,6.37
2019-02-28T22:40:39.075Z,5.20
2019-02-28T22:43:08.625Z,7.13
2019-02-28T22:45:38.203Z,5.90
2019-02-28T22:48:07.822Z,7.43
2019-02-28T22:50:39.537Z,7.70
2019-02-28T22:53:09.168Z,7.10
2019-02-28T22:55:38.810Z,7.33
2019-02-28T22:58:08.883Z,8.80
2019-02-28T23:00:52.062Z,9.10
2019-02-28T23:03:21.659Z,5.37
2019-02-28T23:05:51.240Z,7.53
2019-02-28T23:08:20.846Z,6.83
2019-02-28T23:10:50.384Z,9.63
2019-02-28T23:13:20.052Z,11.80
2019-02-28T23:15:49.616Z,14.80
2019-02-28T23:18:19.237Z,12.73
2019-02-28T23:20:48.789Z,8.60
2019-02-28T23:23:18.444Z,8.03
2019-02-28T23:25:48.023Z,5.40
2019-02-28T23:28:24.658Z,5.43
2019-02-28T23:31:04.968Z,4.50
2019-02-28T23:33:34.559Z,5.90
2019-02-28T23:36:04.209Z,5.23
2019-02-28T23:38:35.348Z,5.87
2019-02-28T23:41:06.783Z,5.23
2019-02-28T23:43:36.379Z,4.57
2019-02-28T23:46:05.944Z,5.80
2019-02-28T23:48:35.504Z,6.03
2019-02-28T23:51:05.091Z,6.53
2019-02-28T23:53:34.721Z,4.63
2019-02-28T23:56:04.374Z,6.67
2019-02-28T23:58:33.919Z,5.03
